Time;durP1;ratioP1;P1;durP2;ratioP2;P2;SDS_P1;SDS_P2;PMS_P1;PMS_P2;Temp;Humidity;BMP_temperature;BMP_pressure;BME280_temperature;BME280_humidity;BME280_pressure;Samples;Min_cycle;Max_cycle;Signal;HPM_P1;HPM_P2
2022/05/24 00:00:44;;;;;;;1.90;1.25;;;17.50;64.70;;;;;;5042004;28;20064;-73
2022/05/24 00:03:11;;;;;;;1.10;0.43;;;17.40;65.30;;;;;;5040217;28;20041;-73
2022/05/24 00:05:39;;;;;;;1.10;0.50;;;17.50;64.90;;;;;;5040794;28;20087;-74
2022/05/24 00:08:07;;;;;;;3.17;0.70;;;17.60;65.00;;;;;;5043705;28;20092;-74
2022/05/24 00:10:39;;;;;;;1.60;0.77;;;17.50;65.30;;;;;;5044171;28;20107;-73
2022/05/24 00:13:06;;;;;;;3.95;0.82;;;17.50;65.60;;;;;;5041272;28;20660;-74
2022/05/24 00:15:34;;;;;;;1.90;0.80;;;17.50;65.50;;;;;;5043682;28;20036;-73
2022/05/24 00:18:17;;;;;;;5.00;1.13;;;17.40;66.20;;;;;;5040651;28;20493;-73
2022/05/24 00:20:48;;;;;;;1.13;0.75;;;17.30;66.50;;;;;;5042215;28;20120;-73
2022/05/24 00:23:17;;;;;;;1.60;0.80;;;17.00;67.20;;;;;;5041678;28;20047;-74
2022/05/24 00:25:47;;;;;;;1.23;0.70;;;17.10;67.60;;;;;;5024829;28;20051;-74
2022/05/24 00:28:15;;;;;;;5.72;0.80;;;17.00;67.50;;;;;;5044273;28;20041;-74
2022/05/24 00:30:45;;;;;;;3.10;0.75;;;17.00;67.90;;;;;;5039265;28;20048;-74
2022/05/24 00:33:13;;;;;;;2.72;0.90;;;16.90;68.00;;;;;;5043305;28;20136;-74
2022/05/24 00:35:41;;;;;;;4.78;0.85;;;17.00;68.00;;;;;;5058597;28;20521;-74
2022/05/24 00:38:11;;;;;;;1.83;0.88;;;17.00;68.00;;;;;;5041466;28;20041;-74
2022/05/24 00:40:45;;;;;;;3.55;0.70;;;16.80;68.50;;;;;;5056683;28;20431;-74
2022/05/24 00:43:37;;;;;;;2.00;1.00;;;16.80;68.60;;;;;;5041760;28;20120;-74
2022/05/24 00:46:14;;;;;;;3.13;0.80;;;16.80;69.00;;;;;;5041339;28;20037;-73
2022/05/24 00:49:11;;;;;;;1.90;0.82;;;16.90;68.70;;;;;;5042742;28;20037;-73
2022/05/24 00:51:53;;;;;;;5.55;1.30;;;17.00;68.60;;;;;;5039918;28;20047;-73
2022/05/24 00:54:20;;;;;;;2.08;0.70;;;17.20;69.00;;;;;;5041525;28;21084;-74
2022/05/24 00:57:00;;;;;;;1.70;0.63;;;17.20;68.20;;;;;;5040415;28;20119;-73
2022/05/24 00:59:51;;;;;;;3.17;0.90;;;17.10;68.60;;;;;;5040622;28;20939;-73
2022/05/24 01:02:19;;;;;;;1.25;0.68;;;17.00;69.20;;;;;;5040785;28;20047;-74
2022/05/24 01:04:49;;;;;;;1.58;0.68;;;16.90;69.40;;;;;;5040278;28;20044;-73
2022/05/24 01:07:16;;;;;;;3.67;0.73;;;16.80;69.60;;;;;;5039717;28;20056;-73
2022/05/24 01:09:56;;;;;;;1.58;0.60;;;16.70;69.80;;;;;;5042360;28;20103;-73
2022/05/24 01:12:30;;;;;;;2.95;1.02;;;16.70;70.40;;;;;;5040498;28;20559;-73
2022/05/24 01:15:00;;;;;;;2.15;0.70;;;16.80;70.10;;;;;;5038718;28;20510;-73
2022/05/24 01:17:28;;;;;;;3.72;0.70;;;16.80;70.20;;;;;;5054941;28;20052;-73
2022/05/24 01:19:55;;;;;;;1.38;0.80;;;16.70;70.30;;;;;;5040103;28;20033;-73
2022/05/24 01:23:04;;;;;;;1.90;0.88;;;16.80;70.20;;;;;;5057375;28;20163;-73
2022/05/24 01:25:43;;;;;;;3.60;0.90;;;16.80;70.20;;;;;;5037000;28;20480;-73
2022/05/24 01:28:28;;;;;;;4.85;0.98;;;16.60;70.30;;;;;;5040442;28;20049;-74
2022/05/24 01:30:56;;;;;;;1.80;0.68;;;16.60;70.40;;;;;;5054518;28;20075;-73
2022/05/24 01:36:10;;;;;;;2.13;0.73;;;16.60;70.70;;;;;;5041728;28;20095;-74
2022/05/24 01:38:51;;;;;;;1.25;0.70;;;16.50;70.70;;;;;;5055855;28;20545;-73
2022/05/24 01:41:21;;;;;;;2.55;0.90;;;16.60;70.70;;;;;;5041803;28;20045;-74
2022/05/24 01:43:51;;;;;;;1.88;0.60;;;16.70;70.30;;;;;;5058297;28;20051;-73
2022/05/24 01:46:22;;;;;;;2.53;0.63;;;16.80;69.90;;;;;;5036940;28;20033;-73
2022/05/24 01:49:00;;;;;;;2.03;0.65;;;16.80;70.10;;;;;;5037131;28;20064;-74
2022/05/24 01:51:34;;;;;;;3.55;1.15;;;16.70;70.20;;;;;;5055247;28;20048;-73
2022/05/24 01:54:03;;;;;;;4.25;0.75;;;16.70;70.20;;;;;;5041494;28;20087;-73
2022/05/24 01:57:25;;;;;;;2.93;0.70;;;16.70;70.10;;;;;;5041546;28;20048;-74
2022/05/24 01:59:56;;;;;;;2.65;0.90;;;16.80;70.30;;;;;;5008798;28;20053;-73
2022/05/24 02:02:23;;;;;;;6.38;0.80;;;16.70;70.70;;;;;;5057479;28;20045;-73
2022/05/24 02:04:50;;;;;;;5.03;0.73;;;16.90;71.00;;;;;;5037587;28;20060;-73
2022/05/24 02:07:24;;;;;;;4.05;0.73;;;17.00;71.20;;;;;;5055662;28;20041;-73
2022/05/24 02:09:54;;;;;;;2.38;0.75;;;17.00;71.00;;;;;;5040073;28;20060;-74
2022/05/24 02:12:38;;;;;;;1.30;0.70;;;17.00;69.90;;;;;;5039426;28;20485;-74
2022/05/24 02:15:12;;;;;;;1.70;0.85;;;17.00;70.40;;;;;;5043240;28;20045;-74
2022/05/24 02:17:44;;;;;;;3.05;0.57;;;17.00;72.40;;;;;;5036942;28;20083;-74
2022/05/24 02:20:15;;;;;;;3.28;0.77;;;16.70;73.60;;;;;;5038521;28;21039;-74
2022/05/24 02:22:43;;;;;;;3.33;0.95;;;16.40;75.40;;;;;;5035968;28;20118;-73
2022/05/24 02:25:26;;;;;;;1.30;0.52;;;16.30;75.20;;;;;;5040132;28;20045;-74
2022/05/24 02:27:55;;;;;;;2.15;0.80;;;16.30;74.90;;;;;;5043702;28;20268;-73
2022/05/24 02:30:24;;;;;;;4.85;1.00;;;16.50;73.40;;;;;;5042460;28;20041;-74
2022/05/24 02:32:52;;;;;;;1.55;0.73;;;16.70;72.80;;;;;;5056790;28;20051;-74
2022/05/24 02:35:21;;;;;;;2.13;0.70;;;16.60;72.40;;;;;;5039608;28;20454;-73
2022/05/24 02:37:48;;;;;;;1.75;0.80;;;16.70;73.60;;;;;;5043268;28;20119;-74
2022/05/24 02:43:02;;;;;;;2.92;1.23;;;16.60;73.60;;;;;;5043356;28;20033;-74
2022/05/24 02:45:29;;;;;;;2.58;0.98;;;16.70;73.90;;;;;;5029813;28;20535;-74
2022/05/24 02:47:56;;;;;;;3.53;1.30;;;16.70;75.50;;;;;;5045108;28;20041;-73
2022/05/24 02:50:25;;;;;;;4.22;1.10;;;16.70;74.70;;;;;;5044979;28;20065;-74
2022/05/24 02:52:52;;;;;;;2.92;0.95;;;16.60;77.30;;;;;;5048171;28;20053;-74
2022/05/24 02:55:23;;;;;;;3.50;1.38;;;16.70;79.50;;;;;;5046779;28;20169;-74
2022/05/24 02:57:50;;;;;;;3.75;1.33;;;16.60;81.40;;;;;;5077954;28;20052;-74
2022/05/24 03:00:21;;;;;;;3.90;1.08;;;16.60;82.40;;;;;;5061922;28;20411;-74
2022/05/24 03:02:49;;;;;;;3.08;1.25;;;16.60;82.60;;;;;;5047189;28;20863;-74
2022/05/24 03:05:22;;;;;;;3.80;1.42;;;16.50;83.40;;;;;;5041433;28;20403;-74
2022/05/24 03:10:36;;;;;;;5.53;2.13;;;16.30;84.90;;;;;;5058513;28;20056;-73
2022/05/24 03:15:51;;;;;;;4.10;1.50;;;16.10;92.10;;;;;;5040683;28;20128;-73
2022/05/24 03:18:19;;;;;;;4.43;1.75;;;16.10;95.10;;;;;;5056868;28;20132;-73
2022/05/24 03:20:46;;;;;;;5.32;2.00;;;16.10;95.40;;;;;;5056066;28;20051;-73
2022/05/24 03:23:14;;;;;;;5.28;2.17;;;16.10;96.20;;;;;;5040708;28;20118;-72
2022/05/24 03:25:42;;;;;;;5.05;2.10;;;16.10;97.70;;;;;;5056861;28;20056;-72
2022/05/24 03:28:10;;;;;;;4.47;2.17;;;16.10;98.60;;;;;;5040694;28;20440;-72
2022/05/24 03:30:43;;;;;;;3.92;1.88;;;16.10;99.90;;;;;;5041702;28;20041;-72
2022/05/24 03:33:11;;;;;;;2.78;1.90;;;16.00;99.20;;;;;;5055223;28;20170;-72
2022/05/24 03:35:39;;;;;;;3.58;2.28;;;16.00;98.90;;;;;;5038985;28;20044;-72
2022/05/24 03:38:06;;;;;;;5.68;2.65;;;16.00;99.30;;;;;;5040572;28;20041;-72
2022/05/24 03:40:34;;;;;;;7.30;2.38;;;15.80;99.90;;;;;;5041740;28;20077;-72
2022/05/24 03:43:02;;;;;;;9.52;2.63;;;15.80;99.90;;;;;;5039931;28;20041;-74
2022/05/24 03:45:29;;;;;;;5.43;2.65;;;15.90;99.90;;;;;;5038147;28;20119;-72
2022/05/24 03:47:57;;;;;;;5.43;2.28;;;15.80;99.90;;;;;;5040427;28;20120;-72
2022/05/24 03:50:24;;;;;;;5.53;2.78;;;15.80;99.90;;;;;;5055180;28;20506;-72
2022/05/24 03:52:51;;;;;;;6.82;2.40;;;15.80;99.90;;;;;;5037389;28;20076;-72
2022/05/24 03:55:18;;;;;;;5.10;2.30;;;15.70;99.90;;;;;;5053326;28;20045;-72
2022/05/24 04:00:44;;;;;;;5.35;2.67;;;15.60;99.90;;;;;;4964078;28;20334;-72
2022/05/24 04:03:11;;;;;;;4.60;2.42;;;15.50;99.90;;;;;;5020369;28;20416;-72
2022/05/24 04:05:46;;;;;;;8.43;2.55;;;15.50;99.90;;;;;;5039796;28;20056;-72
2022/05/24 04:08:19;;;;;;;6.68;2.50;;;15.50;99.90;;;;;;5035188;28;20455;-72
2022/05/24 04:10:47;;;;;;;5.43;2.33;;;15.50;99.90;;;;;;5035935;28;20969;-72
2022/05/24 04:13:14;;;;;;;6.93;2.83;;;15.60;99.90;;;;;;5037593;28;20090;-72
2022/05/24 04:15:41;;;;;;;5.35;1.98;;;15.60;99.90;;;;;;5055116;28;20633;-72
2022/05/24 04:18:08;;;;;;;3.78;2.58;;;15.60;99.90;;;;;;5037751;28;20045;-73
2022/05/24 04:20:35;;;;;;;3.75;2.30;;;15.60;99.90;;;;;;5072610;28;20103;-73
2022/05/24 04:23:03;;;;;;;4.50;2.60;;;15.40;99.90;;;;;;5035778;28;20048;-73
2022/05/24 04:25:34;;;;;;;4.80;2.65;;;15.20;99.90;;;;;;5040901;28;20037;-72
2022/05/24 04:28:01;;;;;;;2.58;2.05;;;15.20;99.90;;;;;;5034752;28;20045;-72
2022/05/24 04:30:29;;;;;;;3.47;2.47;;;15.30;99.90;;;;;;5038757;28;20059;-72
2022/05/24 04:32:56;;;;;;;3.92;2.47;;;15.30;99.90;;;;;;5043281;28;20734;-71
2022/05/24 04:35:23;;;;;;;3.75;2.22;;;15.40;99.90;;;;;;5071297;28;20041;-72
2022/05/24 04:37:51;;;;;;;5.22;2.55;;;15.30;99.90;;;;;;5040002;28;20094;-71
2022/05/24 04:42:18;;;;;;;5.57;2.40;;;15.20;99.90;;;;;;5037773;28;20045;-72
2022/05/24 04:43:07;;;;;;;7.13;2.75;;;15.20;99.90;;;;;;5039145;28;20037;-71
2022/05/24 04:45:34;;;;;;;7.03;2.75;;;15.00;99.90;;;;;;5039274;28;20037;-74
2022/05/24 04:48:01;;;;;;;9.05;3.13;;;14.80;99.90;;;;;;5042372;28;20049;-74
2022/05/24 04:50:28;;;;;;;8.93;3.22;;;14.70;99.90;;;;;;5055683;28;20514;-74
2022/05/24 04:52:58;;;;;;;8.50;3.15;;;14.80;99.90;;;;;;5037843;28;20041;-74
2022/05/24 04:55:26;;;;;;;7.25;3.15;;;14.80;99.90;;;;;;5041006;28;20077;-73
2022/05/24 04:57:55;;;;;;;6.78;3.00;;;14.90;99.90;;;;;;5022185;28;20048;-73
2022/05/24 05:00:23;;;;;;;5.68;3.08;;;14.80;99.90;;;;;;5062891;28;20115;-73
2022/05/24 05:02:51;;;;;;;6.40;3.50;;;14.80;99.90;;;;;;5004467;28;20507;-72
2022/05/24 05:05:19;;;;;;;5.05;2.88;;;14.90;99.90;;;;;;5007941;28;20066;-73
2022/05/24 05:07:52;;;;;;;5.85;3.10;;;14.70;99.90;;;;;;5001917;28;20530;-73
2022/05/24 05:10:19;;;;;;;5.90;3.20;;;14.80;99.90;;;;;;5005364;28;20080;-73
2022/05/24 05:12:47;;;;;;;6.82;3.50;;;14.60;99.90;;;;;;5008315;28;20237;-73
2022/05/24 05:15:15;;;;;;;4.75;3.20;;;14.70;99.90;;;;;;4995839;28;20048;-73
2022/05/24 05:17:42;;;;;;;6.15;3.30;;;14.80;99.90;;;;;;5012191;28;20059;-73
2022/05/24 05:20:10;;;;;;;6.25;2.95;;;14.70;99.90;;;;;;5005298;28;20052;-73
2022/05/24 05:22:38;;;;;;;4.18;2.65;;;14.90;99.90;;;;;;5017923;28;20056;-73
2022/05/24 05:25:07;;;;;;;5.10;2.65;;;14.80;99.90;;;;;;5006004;28;20056;-73
2022/05/24 05:27:34;;;;;;;6.35;3.15;;;14.70;99.90;;;;;;5011604;28;20076;-73
2022/05/24 05:32:50;;;;;;;7.35;3.28;;;14.50;99.90;;;;;;5010301;28;22461;-73
2022/05/24 05:35:18;;;;;;;4.40;2.92;;;14.50;99.90;;;;;;5011503;28;20055;-72
2022/05/24 05:37:45;;;;;;;6.35;3.35;;;14.50;99.90;;;;;;5038395;28;20059;-72
2022/05/24 05:40:14;;;;;;;5.57;3.25;;;14.40;99.90;;;;;;5005910;28;20049;-73
2022/05/24 05:42:41;;;;;;;8.50;3.60;;;14.40;99.90;;;;;;5025238;28;22624;-73
2022/05/24 05:45:11;;;;;;;5.30;3.30;;;14.30;99.90;;;;;;5001806;28;20152;-72
2022/05/24 05:47:39;;;;;;;5.70;3.60;;;14.50;99.90;;;;;;5006654;28;20049;-73
2022/05/24 05:50:07;;;;;;;4.82;3.10;;;14.40;99.90;;;;;;5035602;28;20109;-73
2022/05/24 05:52:34;;;;;;;6.57;3.25;;;14.50;99.90;;;;;;4999227;28;20412;-73
2022/05/24 05:55:02;;;;;;;9.90;3.58;;;14.60;99.90;;;;;;5005247;28;20056;-72
2022/05/24 05:57:29;;;;;;;6.35;3.53;;;14.60;99.90;;;;;;5040500;28;20049;-72
2022/05/24 05:59:56;;;;;;;6.07;3.20;;;14.40;99.90;;;;;;5007565;28;20052;-73
2022/05/24 06:02:23;;;;;;;6.85;3.75;;;14.20;99.90;;;;;;5019851;28;20048;-73
2022/05/24 06:04:51;;;;;;;7.20;3.75;;;14.40;99.90;;;;;;5005299;28;20053;-73
2022/05/24 06:07:18;;;;;;;5.90;3.53;;;14.60;99.90;;;;;;4993999;28;20052;-72
2022/05/24 06:09:47;;;;;;;6.13;3.63;;;14.50;99.90;;;;;;5019034;28;20053;-73
2022/05/24 06:12:14;;;;;;;5.88;3.60;;;14.60;99.90;;;;;;5002549;28;20462;-73
2022/05/24 06:14:41;;;;;;;7.55;3.85;;;14.70;99.90;;;;;;5004653;28;20045;-73
2022/05/24 06:17:26;;;;;;;9.00;3.63;;;14.70;99.90;;;;;;5010846;28;20374;-73
2022/05/24 06:19:53;;;;;;;6.68;3.53;;;14.40;99.90;;;;;;5004141;28;20045;-73
2022/05/24 06:22:21;;;;;;;9.70;3.97;;;14.40;99.90;;;;;;5008439;28;20047;-72
2022/05/24 06:24:48;;;;;;;6.18;3.83;;;14.20;99.90;;;;;;5014262;28;20060;-73
2022/05/24 06:27:20;;;;;;;6.82;3.35;;;14.20;99.90;;;;;;5010590;28;20171;-72
2022/05/24 06:29:49;;;;;;;5.95;4.20;;;14.20;99.90;;;;;;5012508;28;20095;-73
2022/05/24 06:32:16;;;;;;;6.53;3.60;;;14.40;99.90;;;;;;5013520;28;20110;-72
2022/05/24 06:34:45;;;;;;;5.55;3.75;;;14.20;99.90;;;;;;5008368;28;20053;-73
2022/05/24 06:37:17;;;;;;;5.60;3.42;;;14.20;99.90;;;;;;5011870;28;20041;-73
2022/05/24 06:39:44;;;;;;;5.05;3.40;;;14.20;99.90;;;;;;5013073;28;20044;-72
2022/05/24 06:42:11;;;;;;;5.05;3.33;;;14.10;99.90;;;;;;5011392;28;22447;-73
2022/05/24 06:44:39;;;;;;;4.80;2.97;;;14.00;99.90;;;;;;5011831;28;20044;-73
2022/05/24 06:47:07;;;;;;;5.68;3.47;;;14.00;99.90;;;;;;5011348;28;21008;-73
2022/05/24 06:49:36;;;;;;;5.05;3.53;;;14.10;99.90;;;;;;5013893;28;20048;-73
2022/05/24 06:52:04;;;;;;;4.43;3.17;;;14.30;99.90;;;;;;5008575;28;20498;-73
2022/05/24 06:54:32;;;;;;;5.22;3.65;;;14.20;99.90;;;;;;5004937;28;22495;-73
2022/05/24 06:57:00;;;;;;;5.50;3.88;;;14.20;99.90;;;;;;5010472;28;20088;-73
2022/05/24 07:02:30;;;;;;;6.33;4.23;;;14.30;99.90;;;;;;4982886;28;21174;-72
2022/05/24 07:05:18;;;;;;;5.57;2.88;;;14.10;99.90;;;;;;5003686;28;20450;-73
2022/05/24 07:07:46;;;;;;;4.82;3.28;;;14.20;99.90;;;;;;5008696;28;20053;-72
2022/05/24 07:10:20;;;;;;;4.78;3.50;;;14.40;99.90;;;;;;5026516;28;22495;-73
2022/05/24 07:12:47;;;;;;;6.47;4.00;;;14.50;99.90;;;;;;5012351;28;20053;-73
2022/05/24 07:15:14;;;;;;;7.22;3.50;;;14.50;99.90;;;;;;5022953;28;20044;-73
2022/05/24 07:17:41;;;;;;;5.60;3.60;;;14.50;99.90;;;;;;5020135;28;20160;-73
2022/05/24 07:20:09;;;;;;;6.30;3.97;;;14.50;99.90;;;;;;5011195;28;20045;-73
2022/05/24 07:22:37;;;;;;;6.30;3.88;;;14.60;99.90;;;;;;5017656;28;20045;-73
2022/05/24 07:25:06;;;;;;;4.93;3.78;;;14.70;99.90;;;;;;4993252;28;20040;-73
2022/05/24 07:27:33;;;;;;;5.20;3.30;;;14.80;99.90;;;;;;5006266;28;20082;-73
2022/05/24 07:30:00;;;;;;;8.70;4.50;;;14.90;99.90;;;;;;5004528;28;20053;-73
2022/05/24 07:32:28;;;;;;;23.15;9.77;;;14.80;99.90;;;;;;5005967;28;20061;-74
2022/05/24 07:34:56;;;;;;;40.10;17.70;;;14.90;99.90;;;;;;5008321;28;20045;-73
2022/05/24 07:37:23;;;;;;;58.70;22.30;;;15.10;99.90;;;;;;5020701;28;20057;-73
2022/05/24 07:48:05;;;;;;;15.02;6.90;;;15.10;99.90;;;;;;5025315;28;20083;-73
2022/05/24 07:50:33;;;;;;;10.15;5.53;;;15.00;99.90;;;;;;5006717;28;20048;-73
2022/05/24 07:53:00;;;;;;;5.13;3.72;;;15.10;99.90;;;;;;5023916;28;20057;-73
2022/05/24 07:55:27;;;;;;;6.90;3.78;;;15.30;99.90;;;;;;5004640;28;20060;-72
2022/05/24 07:57:55;;;;;;;7.80;3.35;;;15.50;99.90;;;;;;5014835;28;20061;-73
2022/05/24 08:00:22;;;;;;;4.93;3.72;;;15.60;99.90;;;;;;5018920;28;20068;-73
2022/05/24 08:02:50;;;;;;;4.82;3.72;;;15.60;99.90;;;;;;5015670;28;22572;-73
2022/05/24 08:05:19;;;;;;;7.43;4.15;;;15.70;99.90;;;;;;5003883;28;20049;-73
2022/05/24 08:07:49;;;;;;;7.25;3.80;;;15.80;99.90;;;;;;4987408;28;20538;-72
2022/05/24 08:10:17;;;;;;;6.20;3.97;;;16.00;99.90;;;;;;4999318;28;22446;-73
2022/05/24 08:12:44;;;;;;;5.88;3.25;;;16.00;99.90;;;;;;5005152;28;22420;-73
2022/05/24 08:15:13;;;;;;;5.85;3.47;;;15.90;99.90;;;;;;5005508;28;20060;-73
2022/05/24 08:17:40;;;;;;;5.28;3.70;;;15.90;99.90;;;;;;5007803;28;20079;-73
2022/05/24 08:20:11;;;;;;;3.67;2.80;;;16.00;99.90;;;;;;5020186;28;20052;-74
2022/05/24 08:22:39;;;;;;;5.10;2.92;;;16.10;99.90;;;;;;5022103;28;20049;-74
2022/05/24 08:25:09;;;;;;;4.65;3.40;;;16.20;99.90;;;;;;5019884;28;20049;-74
2022/05/24 08:27:37;;;;;;;3.95;2.83;;;16.20;99.90;;;;;;5000267;28;20056;-73
2022/05/24 08:30:06;;;;;;;4.80;2.50;;;16.20;99.90;;;;;;5008286;28;20770;-73
2022/05/24 08:32:34;;;;;;;4.60;2.72;;;16.10;99.90;;;;;;5003498;28;20713;-74
2022/05/24 08:35:02;;;;;;;4.78;2.40;;;16.00;99.90;;;;;;5001685;28;20049;-73
2022/05/24 08:37:36;;;;;;;4.90;2.47;;;15.90;99.90;;;;;;5013740;28;20792;-73
2022/05/24 08:40:04;;;;;;;3.95;2.38;;;16.20;99.90;;;;;;5002268;28;20041;-73
2022/05/24 08:42:40;;;;;;;4.03;2.10;;;16.20;99.90;;;;;;5004169;28;20055;-73
2022/05/24 08:48:33;;;;;;;3.63;2.20;;;16.50;99.90;;;;;;5003259;28;20146;-73
2022/05/24 08:51:02;;;;;;;3.72;2.85;;;16.70;99.90;;;;;;5002404;28;20065;-73
2022/05/24 08:53:46;;;;;;;2.90;2.08;;;17.00;99.90;;;;;;4989029;28;20194;-74
2022/05/24 08:56:24;;;;;;;3.90;1.95;;;17.00;99.90;;;;;;5007994;28;20055;-74
2022/05/24 08:59:14;;;;;;;2.65;1.65;;;17.00;99.90;;;;;;5008847;28;20154;-73
2022/05/24 09:01:44;;;;;;;2.83;1.90;;;16.90;99.90;;;;;;5024274;28;20086;-74
2022/05/24 09:04:13;;;;;;;4.10;2.03;;;16.90;99.90;;;;;;5002685;28;20057;-73
2022/05/24 09:07:15;;;;;;;6.43;2.30;;;16.90;99.90;;;;;;5001972;28;20107;-74
2022/05/24 09:09:57;;;;;;;3.53;2.40;;;17.00;99.90;;;;;;5005369;28;20060;-74
2022/05/24 09:12:37;;;;;;;3.15;2.40;;;17.20;99.90;;;;;;5041575;28;20115;-74
2022/05/24 09:15:29;;;;;;;2.72;2.17;;;17.40;99.90;;;;;;4994185;28;21053;-74
2022/05/24 09:18:11;;;;;;;2.65;2.28;;;17.50;99.90;;;;;;5024765;28;20056;-73
2022/05/24 09:20:42;;;;;;;2.40;1.63;;;17.70;99.90;;;;;;5001456;28;20186;-73
2022/05/24 09:23:21;;;;;;;3.90;1.67;;;17.70;99.90;;;;;;5008702;28;20049;-74
2022/05/24 09:25:56;;;;;;;3.15;1.85;;;17.60;99.70;;;;;;5028934;28;20060;-73
2022/05/24 09:28:55;;;;;;;3.90;1.90;;;17.60;99.90;;;;;;5006919;28;20137;-73
2022/05/24 09:31:25;;;;;;;2.40;1.27;;;17.70;99.90;;;;;;4984125;28;20136;-73
2022/05/24 09:33:59;;;;;;;3.90;2.28;;;17.70;99.90;;;;;;5004768;28;22800;-73
2022/05/24 09:36:37;;;;;;;2.60;2.15;;;17.70;99.90;;;;;;5007800;28;20055;-73
2022/05/24 09:39:20;;;;;;;3.45;1.80;;;17.70;99.90;;;;;;5011348;28;20082;-74
2022/05/24 09:42:27;;;;;;;1.98;1.30;;;17.80;99.90;;;;;;5009166;28;20072;-73
2022/05/24 09:44:59;;;;;;;2.58;1.70;;;17.70;98.60;;;;;;5004740;28;20166;-74
2022/05/24 09:47:35;;;;;;;3.92;1.95;;;17.80;98.80;;;;;;5037847;28;20056;-74
2022/05/24 09:50:23;;;;;;;3.10;1.30;;;18.00;99.90;;;;;;5008850;28;20045;-74
2022/05/24 09:53:02;;;;;;;2.72;1.50;;;17.90;97.70;;;;;;5005234;28;20052;-73
2022/05/24 09:55:40;;;;;;;2.50;1.45;;;18.20;95.90;;;;;;5006378;28;20052;-73
2022/05/24 09:58:25;;;;;;;3.38;1.25;;;18.50;95.60;;;;;;5016613;28;20072;-74
2022/05/24 10:01:35;;;;;;;2.95;1.38;;;18.80;94.80;;;;;;5007548;28;20049;-73
2022/05/24 10:04:13;;;;;;;5.47;1.50;;;18.80;92.80;;;;;;5010906;28;20677;-74
2022/05/24 10:06:42;;;;;;;2.42;1.63;;;18.80;93.40;;;;;;5017800;28;20141;-74
2022/05/24 10:09:20;;;;;;;2.17;1.75;;;18.90;96.70;;;;;;5018772;28;20057;-74
2022/05/24 10:12:06;;;;;;;1.73;1.10;;;19.00;95.60;;;;;;5014221;28;20138;-74
2022/05/24 10:14:55;;;;;;;2.83;1.45;;;19.00;94.20;;;;;;5029456;28;20079;-74
2022/05/24 10:17:22;;;;;;;2.03;1.25;;;19.10;95.30;;;;;;5013989;28;20084;-74
2022/05/24 10:19:55;;;;;;;2.53;1.30;;;19.10;93.40;;;;;;5020065;28;20052;-74
2022/05/24 10:22:49;;;;;;;2.88;1.20;;;19.10;91.90;;;;;;5016766;28;20804;-74
2022/05/24 10:25:35;;;;;;;1.77;1.10;;;19.30;93.00;;;;;;5024411;28;22633;-74
2022/05/24 10:28:11;;;;;;;2.03;1.40;;;19.40;92.40;;;;;;5012722;28;20049;-75
2022/05/24 10:31:07;;;;;;;2.97;1.10;;;19.40;92.00;;;;;;5007531;28;20048;-74
2022/05/24 10:40:15;;;;;;;3.45;1.65;;;19.60;92.80;;;;;;5018140;28;20044;-74
2022/05/24 10:42:52;;;;;;;3.40;1.23;;;19.70;92.30;;;;;;5009145;28;20056;-73
2022/05/24 10:45:49;;;;;;;2.63;1.60;;;19.80;91.80;;;;;;5011674;28;20148;-74
2022/05/24 10:48:38;;;;;;;2.70;1.58;;;19.70;91.60;;;;;;5033280;28;20052;-74
2022/05/24 10:51:17;;;;;;;3.75;1.63;;;19.70;90.00;;;;;;5014913;28;20049;-75
2022/05/24 10:53:53;;;;;;;4.50;1.25;;;19.70;92.80;;;;;;5007836;28;20700;-74
2022/05/24 10:56:50;;;;;;;3.45;1.15;;;19.70;91.00;;;;;;5012169;28;20175;-74
2022/05/24 10:59:49;;;;;;;2.33;1.05;;;19.80;91.20;;;;;;4989972;28;20419;-74
2022/05/24 11:02:25;;;;;;;3.17;1.50;;;19.90;90.10;;;;;;5029734;28;20053;-74
2022/05/24 11:05:11;;;;;;;2.38;1.42;;;20.00;90.20;;;;;;5008500;28;21431;-75
2022/05/24 11:07:38;;;;;;;7.25;1.60;;;19.90;88.50;;;;;;5009820;28;20064;-73
2022/05/24 11:10:17;;;;;;;2.17;1.27;;;20.00;89.10;;;;;;5009676;28;20126;-75
2022/05/24 11:12:48;;;;;;;1.50;1.05;;;20.00;87.50;;;;;;5024071;28;20053;-74
2022/05/24 11:15:33;;;;;;;2.22;1.55;;;20.00;90.50;;;;;;5009385;28;22493;-74
2022/05/24 11:18:21;;;;;;;2.35;1.67;;;20.20;90.50;;;;;;5010637;28;20052;-75
2022/05/24 11:21:01;;;;;;;3.67;1.65;;;20.00;89.40;;;;;;5010886;28;20048;-75
2022/05/24 11:23:45;;;;;;;2.60;1.05;;;20.10;87.80;;;;;;5007281;28;20132;-75
2022/05/24 11:26:27;;;;;;;2.92;1.65;;;20.00;89.90;;;;;;5006088;28;20048;-74
2022/05/24 11:28:59;;;;;;;3.00;1.60;;;20.10;90.20;;;;;;5004926;28;22098;-74
2022/05/24 11:31:42;;;;;;;2.03;1.30;;;20.10;91.10;;;;;;5009161;28;20379;-74
2022/05/24 11:34:25;;;;;;;2.08;1.88;;;20.20;90.70;;;;;;5009499;28;20049;-74
2022/05/24 11:37:27;;;;;;;2.45;1.55;;;20.20;89.00;;;;;;5008282;28;20052;-74
2022/05/24 11:39:55;;;;;;;5.03;1.40;;;20.20;88.20;;;;;;5026543;28;20096;-74
2022/05/24 11:42:43;;;;;;;3.85;1.70;;;20.30;90.40;;;;;;5026203;28;20037;-73
2022/05/24 11:45:29;;;;;;;2.90;1.52;;;20.30;90.20;;;;;;5005714;28;20045;-74
2022/05/24 11:48:00;;;;;;;3.33;1.80;;;20.40;89.70;;;;;;5004349;28;22382;-73
2022/05/24 11:50:31;;;;;;;2.92;1.92;;;20.50;90.80;;;;;;5040991;28;20078;-74
2022/05/24 11:53:04;;;;;;;1.52;1.10;;;20.50;86.80;;;;;;5005521;28;20063;-74
2022/05/24 11:56:00;;;;;;;3.33;1.95;;;20.50;88.80;;;;;;5040959;28;20057;-73
2022/05/24 11:58:30;;;;;;;1.75;1.48;;;20.60;90.30;;;;;;5000198;28;20057;-74
2022/05/24 12:01:07;;;;;;;2.88;1.75;;;20.70;89.30;;;;;;5018876;28;20526;-74
2022/05/24 12:10:11;;;;;;;2.70;1.70;;;20.80;88.70;;;;;;4938635;28;20183;-74
2022/05/24 12:12:44;;;;;;;4.68;1.83;;;20.80;89.70;;;;;;4931839;28;20089;-74
2022/05/24 12:15:21;;;;;;;2.67;1.92;;;20.70;88.30;;;;;;4977854;28;20068;-73
2022/05/24 12:18:12;;;;;;;2.70;1.75;;;20.80;88.10;;;;;;5003457;28;22458;-74
2022/05/24 12:20:39;;;;;;;2.97;1.98;;;20.70;85.70;;;;;;5015066;28;20138;-74
2022/05/24 12:23:06;;;;;;;4.95;2.50;;;20.80;85.80;;;;;;5008644;28;20240;-74
2022/05/24 12:26:13;;;;;;;3.47;1.98;;;20.90;84.30;;;;;;5005566;28;23415;-74
2022/05/24 12:28:52;;;;;;;3.25;2.05;;;20.90;88.00;;;;;;4975218;28;20056;-74
2022/05/24 12:31:22;;;;;;;3.53;1.88;;;21.00;87.00;;;;;;5007567;28;20167;-74
2022/05/24 12:33:53;;;;;;;3.13;1.55;;;20.90;84.80;;;;;;5012008;28;20057;-74
2022/05/24 12:36:46;;;;;;;2.55;2.00;;;20.90;85.70;;;;;;5002400;28;20048;-72
2022/05/24 12:39:35;;;;;;;3.90;1.48;;;21.00;86.50;;;;;;5017031;28;20068;-72
2022/05/24 12:42:12;;;;;;;3.60;1.85;;;21.10;85.80;;;;;;5030195;28;20220;-72
2022/05/24 12:44:48;;;;;;;3.53;1.80;;;21.10;84.90;;;;;;5002094;28;20044;-72
2022/05/24 12:47:20;;;;;;;5.43;2.00;;;21.10;84.10;;;;;;5002097;28;20102;-73
2022/05/24 12:49:48;;;;;;;2.33;1.60;;;21.00;82.40;;;;;;5004236;28;20047;-73
2022/05/24 12:52:24;;;;;;;4.53;1.70;;;21.10;84.40;;;;;;5001264;28;20053;-73
2022/05/24 12:54:55;;;;;;;4.18;2.03;;;21.10;83.00;;;;;;5018540;28;20065;-73
2022/05/24 12:57:29;;;;;;;3.17;1.90;;;21.10;84.00;;;;;;5034735;28;20202;-73
2022/05/24 13:00:00;;;;;;;2.78;1.63;;;21.00;81.90;;;;;;5000457;28;20419;-73
2022/05/24 13:02:33;;;;;;;1.75;1.48;;;21.10;85.00;;;;;;4992639;28;20052;-72
2022/05/24 13:05:09;;;;;;;3.95;1.92;;;21.10;84.70;;;;;;5016045;28;20052;-73
2022/05/24 13:07:51;;;;;;;2.72;1.60;;;21.20;83.60;;;;;;4996842;28;20053;-72
2022/05/24 13:10:19;;;;;;;;;;;21.30;82.70;;;;;;4996969;28;21148;-72
2022/05/24 13:12:48;;;;;;;2.90;1.80;;;21.20;82.40;;;;;;5015110;28;19928;-73
2022/05/24 13:15:18;;;;;;;3.38;1.98;;;21.30;81.40;;;;;;5032932;28;22541;-73
2022/05/24 13:17:51;;;;;;;3.22;1.55;;;21.20;82.70;;;;;;5000538;28;22470;-73
2022/05/24 13:20:19;;;;;;;2.58;1.30;;;21.20;83.60;;;;;;4996714;28;20049;-71
2022/05/24 13:23:00;;;;;;;4.20;1.58;;;21.40;81.50;;;;;;5001219;28;20055;-73
2022/05/24 13:25:42;;;;;;;2.72;1.23;;;21.40;79.80;;;;;;5018781;28;20197;-71
2022/05/24 13:28:11;;;;;;;2.95;1.27;;;21.40;78.20;;;;;;4998698;28;20080;-73
2022/05/24 13:33:38;;;;;;;4.18;1.40;;;21.50;82.20;;;;;;4994894;28;20610;-73
2022/05/24 13:36:20;;;;;;;2.17;1.48;;;21.60;80.70;;;;;;5031150;28;20546;-73
2022/05/24 13:39:10;;;;;;;2.80;1.17;;;21.60;79.20;;;;;;5021852;28;22452;-72
2022/05/24 13:41:45;;;;;;;3.33;1.52;;;21.70;81.90;;;;;;4974350;28;20269;-73
2022/05/24 13:44:36;;;;;;;1.92;1.30;;;21.60;77.40;;;;;;5001677;28;20045;-73
2022/05/24 13:47:25;;;;;;;2.05;0.90;;;21.60;81.40;;;;;;5004500;28;20041;-73
2022/05/24 13:49:57;;;;;;;2.75;1.15;;;21.70;80.80;;;;;;4996664;28;20045;-72
2022/05/24 13:52:25;;;;;;;2.47;1.30;;;21.80;78.30;;;;;;5004487;28;20187;-73
2022/05/24 13:55:13;;;;;;;1.95;1.30;;;21.70;78.00;;;;;;4998128;28;20100;-72
2022/05/24 13:57:56;;;;;;;2.13;0.90;;;21.60;79.70;;;;;;5004254;28;20154;-73
2022/05/24 14:00:24;;;;;;;2.00;1.33;;;21.60;78.20;;;;;;5014821;28;20064;-73
2022/05/24 14:03:16;;;;;;;3.28;1.10;;;21.60;77.90;;;;;;4995581;28;20462;-74
2022/05/24 14:05:47;;;;;;;2.37;1.10;;;21.60;76.60;;;;;;4998611;28;20045;-74
2022/05/24 14:08:14;;;;;;;2.72;1.42;;;21.70;76.80;;;;;;4999604;28;20100;-73